Time;durP1;ratioP1;P1;durP2;ratioP2;P2;SDS_P1;SDS_P2;PMS_P1;PMS_P2;Temp;Humidity;BMP_temperature;BMP_pressure;BME280_temperature;BME280_humidity;BME280_pressure;Samples;Min_cycle;Max_cycle;Signal;HPM_P1;HPM_P2
2022/05/17 00:02:23;;;;;;;3.75;3.45;;;22.00;56.30;;;;;;5000978;28;20034;-42
2022/05/17 00:04:50;;;;;;;4.03;3.72;;;22.00;56.40;;;;;;5000701;28;20117;-41
2022/05/17 00:07:16;;;;;;;3.80;3.50;;;22.00;56.50;;;;;;5004441;28;20093;-42
2022/05/17 00:09:42;;;;;;;4.07;3.78;;;22.00;56.40;;;;;;5001317;28;20097;-42
2022/05/17 00:12:08;;;;;;;5.30;3.95;;;21.90;56.40;;;;;;5005114;28;20038;-41
2022/05/17 00:14:34;;;;;;;3.47;3.17;;;21.90;56.40;;;;;;4998545;28;20026;-42
2022/05/17 00:17:01;;;;;;;4.60;4.20;;;21.90;56.50;;;;;;5006852;28;20050;-41
2022/05/17 00:19:28;;;;;;;4.30;3.90;;;21.90;56.40;;;;;;5015895;28;20037;-42
2022/05/17 00:21:54;;;;;;;4.38;3.97;;;21.90;56.40;;;;;;5040613;28;20050;-41
2022/05/17 00:24:21;;;;;;;4.22;3.83;;;21.90;56.30;;;;;;5049102;28;20092;-43
2022/05/17 00:26:48;;;;;;;4.50;4.10;;;21.90;56.30;;;;;;5056878;28;20098;-42
2022/05/17 00:29:14;;;;;;;4.88;4.00;;;21.90;56.20;;;;;;5044734;28;20093;-41
2022/05/17 00:31:40;;;;;;;4.60;4.20;;;21.80;56.10;;;;;;5039901;28;20022;-41
2022/05/17 00:34:07;;;;;;;3.97;3.67;;;21.80;56.00;;;;;;5041171;28;20367;-44
2022/05/17 00:36:33;;;;;;;;;;;21.80;56.00;;;;;;5041256;28;20033;-42
2022/05/17 00:39:00;;;;;;;3.63;3.33;;;21.80;56.00;;;;;;5033041;28;20401;-40
2022/05/17 00:41:27;;;;;;;4.00;3.60;;;21.80;56.00;;;;;;5036091;28;20072;-42
2022/05/17 00:46:54;;;;;;;3.90;3.60;;;21.70;55.90;;;;;;5044405;28;20053;-42
2022/05/17 00:49:51;;;;;;;4.10;3.80;;;21.70;55.90;;;;;;5043797;28;20036;-41
2022/05/17 00:52:22;;;;;;;3.70;3.40;;;21.70;55.80;;;;;;5042471;28;20058;-43
2022/05/17 00:54:48;;;;;;;4.03;3.63;;;21.70;55.70;;;;;;5057488;28;20691;-43
2022/05/17 00:57:44;;;;;;;3.95;3.55;;;21.70;55.70;;;;;;5059234;28;20508;-42
2022/05/17 01:00:12;;;;;;;3.65;3.30;;;21.70;55.60;;;;;;5039409;28;20057;-42
2022/05/17 01:02:43;;;;;;;4.00;3.70;;;21.60;55.50;;;;;;5041134;28;20037;-42
2022/05/17 01:05:09;;;;;;;4.10;3.80;;;21.60;55.40;;;;;;5038852;28;20088;-41
2022/05/17 01:07:40;;;;;;;3.63;3.33;;;21.60;55.40;;;;;;5040309;28;20875;-42
2022/05/17 01:10:07;;;;;;;4.25;3.88;;;21.60;55.40;;;;;;5044653;28;20035;-42
2022/05/17 01:12:37;;;;;;;3.95;3.60;;;21.60;55.40;;;;;;5044106;28;20111;-40
2022/05/17 01:15:06;;;;;;;3.72;3.42;;;21.60;55.40;;;;;;5057435;28;20032;-42
2022/05/17 01:17:34;;;;;;;3.63;3.33;;;21.60;55.50;;;;;;5057983;28;20032;-40
2022/05/17 01:20:02;;;;;;;3.88;3.47;;;21.50;55.30;;;;;;5046902;28;20029;-41
2022/05/17 01:22:28;;;;;;;3.90;3.60;;;21.50;55.30;;;;;;5040205;28;20678;-41
2022/05/17 01:24:54;;;;;;;3.55;3.25;;;21.50;55.30;;;;;;5052190;28;20033;-41
2022/05/17 01:27:37;;;;;;;3.72;3.42;;;21.50;55.20;;;;;;5047048;28;20141;-42
2022/05/17 01:30:04;;;;;;;3.80;3.50;;;21.50;55.20;;;;;;5050266;28;20082;-44
2022/05/17 01:32:30;;;;;;;3.58;3.28;;;21.40;55.00;;;;;;5044074;28;20096;-42
2022/05/17 01:34:56;;;;;;;3.42;3.13;;;21.40;55.00;;;;;;5045961;28;20114;-40
2022/05/17 01:37:23;;;;;;;3.33;3.03;;;21.40;55.10;;;;;;5041487;28;20026;-40
2022/05/17 01:39:49;;;;;;;3.53;3.22;;;21.40;55.20;;;;;;5044525;28;20063;-40
2022/05/17 01:42:15;;;;;;;3.92;3.63;;;21.40;55.20;;;;;;5043707;28;20119;-41
2022/05/17 01:44:43;;;;;;;4.40;3.90;;;21.30;55.30;;;;;;5048303;28;20032;-40
2022/05/17 01:47:13;;;;;;;3.80;3.50;;;21.40;55.40;;;;;;5047954;28;20037;-40
2022/05/17 01:49:39;;;;;;;4.60;3.63;;;21.30;55.50;;;;;;5043935;28;20107;-40
2022/05/17 01:52:05;;;;;;;3.72;3.42;;;21.40;55.70;;;;;;5041322;28;20041;-40
2022/05/17 01:54:31;;;;;;;4.00;3.70;;;21.30;55.70;;;;;;5047419;28;20033;-41
2022/05/17 01:56:58;;;;;;;5.35;3.95;;;21.40;55.90;;;;;;5045563;28;20071;-42
2022/05/17 01:59:24;;;;;;;4.65;3.60;;;21.40;55.90;;;;;;5039604;28;20049;-40
2022/05/17 02:01:50;;;;;;;5.18;3.70;;;21.40;56.00;;;;;;5044293;28;20033;-40
2022/05/17 02:04:16;;;;;;;4.85;3.97;;;21.40;56.20;;;;;;5043490;28;20025;-40
2022/05/17 02:06:42;;;;;;;4.05;3.67;;;21.40;56.20;;;;;;5044938;28;20034;-40
2022/05/17 02:09:09;;;;;;;5.10;3.80;;;21.40;56.20;;;;;;5053797;28;20084;-40
2022/05/17 02:11:36;;;;;;;4.50;4.10;;;21.40;56.20;;;;;;5047585;28;20033;-40
2022/05/17 02:14:02;;;;;;;;;;;21.50;56.10;;;;;;5055448;28;20040;-41
2022/05/17 02:16:28;;;;;;;4.93;4.53;;;21.60;56.20;;;;;;5048662;28;19992;-39
2022/05/17 02:18:54;;;;;;;6.20;5.70;;;21.60;56.20;;;;;;5047531;28;20030;-42
2022/05/17 02:21:20;;;;;;;6.82;6.22;;;21.60;56.30;;;;;;5049871;28;20144;-40
2022/05/17 02:23:47;;;;;;;8.05;7.45;;;21.70;56.30;;;;;;5047712;28;20048;-40
2022/05/17 02:26:13;;;;;;;8.82;8.07;;;21.70;56.30;;;;;;5049773;28;20037;-41
2022/05/17 02:28:43;;;;;;;10.52;9.73;;;21.70;56.40;;;;;;5042963;28;20454;-41
2022/05/17 02:31:14;;;;;;;11.13;10.15;;;21.70;56.50;;;;;;5045683;28;20033;-42
2022/05/17 02:33:40;;;;;;;13.18;12.18;;;21.80;56.40;;;;;;5043708;28;20025;-41
2022/05/17 02:36:06;;;;;;;14.13;13.02;;;21.80;56.60;;;;;;5045678;28;20351;-41
2022/05/17 02:38:32;;;;;;;16.17;14.80;;;21.80;56.60;;;;;;5044537;28;20084;-44
2022/05/17 02:40:58;;;;;;;17.30;15.90;;;21.80;56.70;;;;;;5048132;28;20057;-40
2022/05/17 02:43:24;;;;;;;16.92;15.63;;;21.80;56.60;;;;;;5045063;28;20063;-39
2022/05/17 02:45:53;;;;;;;17.92;16.42;;;21.90;56.70;;;;;;5041762;28;20092;-40
2022/05/17 02:48:19;;;;;;;18.38;16.98;;;21.90;56.80;;;;;;5041885;28;20037;-42
2022/05/17 02:50:45;;;;;;;18.05;16.55;;;21.90;56.70;;;;;;5041782;28;20040;-41
2022/05/17 02:53:11;;;;;;;17.95;16.45;;;21.90;56.80;;;;;;5044689;28;20033;-41
2022/05/17 02:55:37;;;;;;;18.00;16.60;;;22.00;56.70;;;;;;5045708;28;20053;-41
2022/05/17 02:58:03;;;;;;;18.33;16.92;;;22.00;56.60;;;;;;5039599;28;20045;-41
2022/05/17 03:00:30;;;;;;;18.98;17.55;;;22.00;56.70;;;;;;5043037;28;20443;-41
2022/05/17 03:02:57;;;;;;;18.77;17.38;;;22.00;56.90;;;;;;5050502;28;20565;-40
2022/05/17 03:05:24;;;;;;;17.00;15.70;;;22.10;56.70;;;;;;5048314;28;20052;-39
2022/05/17 03:07:50;;;;;;;19.13;17.63;;;22.10;56.70;;;;;;5043703;28;20063;-42
2022/05/17 03:10:17;;;;;;;18.38;17.05;;;22.10;56.70;;;;;;5044014;28;20035;-43
2022/05/17 03:12:43;;;;;;;18.40;16.95;;;22.10;56.80;;;;;;5041141;28;20479;-41
2022/05/17 03:15:10;;;;;;;19.67;18.10;;;22.10;56.80;;;;;;5045712;28;20069;-41
2022/05/17 03:17:36;;;;;;;18.90;17.50;;;22.10;56.90;;;;;;5040114;28;20057;-41
2022/05/17 03:20:03;;;;;;;18.42;17.02;;;22.10;56.90;;;;;;5044057;28;20052;-41
2022/05/17 03:22:29;;;;;;;17.97;16.67;;;22.10;56.90;;;;;;5047901;28;20030;-40
2022/05/17 03:24:55;;;;;;;18.83;17.35;;;22.10;57.00;;;;;;5048906;28;20286;-40
2022/05/17 03:27:21;;;;;;;17.73;16.42;;;22.10;57.00;;;;;;5041756;28;20044;-41
2022/05/17 03:29:47;;;;;;;17.75;16.45;;;22.20;57.00;;;;;;5046184;28;20056;-40
2022/05/17 03:32:13;;;;;;;17.63;16.33;;;22.20;56.90;;;;;;5051484;28;20060;-41
2022/05/17 03:34:40;;;;;;;18.25;16.75;;;22.20;56.90;;;;;;5046118;28;20030;-41
2022/05/17 03:37:06;;;;;;;17.50;16.20;;;22.20;57.00;;;;;;5044130;28;20056;-41
2022/05/17 03:39:32;;;;;;;17.73;16.35;;;22.20;57.00;;;;;;5044752;28;20030;-42
2022/05/17 03:41:58;;;;;;;18.48;17.02;;;22.20;57.00;;;;;;5047010;28;20041;-40
2022/05/17 03:44:24;;;;;;;18.05;16.65;;;22.20;57.00;;;;;;5043679;28;20141;-43
2022/05/17 03:46:50;;;;;;;17.75;16.45;;;22.30;57.10;;;;;;5037692;28;20021;-40
2022/05/17 03:49:16;;;;;;;19.08;17.77;;;22.20;57.10;;;;;;5050394;28;20033;-41
2022/05/17 03:51:45;;;;;;;20.08;18.45;;;22.30;57.10;;;;;;5045753;28;20488;-40
2022/05/17 03:54:11;;;;;;;21.45;19.75;;;22.30;57.70;;;;;;5043096;28;20029;-40
2022/05/17 03:56:37;;;;;;;21.27;19.67;;;22.30;57.10;;;;;;5049646;28;20064;-43
2022/05/17 03:59:03;;;;;;;18.80;17.23;;;22.30;57.10;;;;;;5042799;28;20029;-47
2022/05/17 04:01:30;;;;;;;17.17;15.77;;;22.30;56.70;;;;;;5045652;28;20051;-40
2022/05/17 04:03:58;;;;;;;16.20;14.80;;;22.30;56.60;;;;;;5038434;28;20045;-43
2022/05/17 10:30:55;;;;;;;2.92;1.63;;;20.60;58.70;;;;;;5129238;27;20125;-39
2022/05/17 10:33:35;;;;;;;1.65;1.42;;;20.60;59.30;;;;;;5093961;28;20503;-45
2022/05/17 10:36:08;;;;;;;2.10;1.90;;;20.60;59.20;;;;;;5120825;28;20063;-47
2022/05/17 10:38:37;;;;;;;2.25;1.40;;;20.60;59.00;;;;;;5114672;28;20020;-46
2022/05/17 10:41:09;;;;;;;3.17;1.45;;;20.70;59.00;;;;;;5122162;28;20039;-49
2022/05/17 10:43:37;;;;;;;2.15;1.63;;;20.70;59.10;;;;;;5096392;28;20043;-46
2022/05/17 10:46:19;;;;;;;2.17;1.40;;;20.60;58.90;;;;;;5107199;28;20032;-46
2022/05/17 10:48:54;;;;;;;5.43;1.92;;;20.70;58.90;;;;;;5088057;28;20087;-40
2022/05/17 10:51:42;;;;;;;3.60;1.70;;;20.70;59.30;;;;;;5109601;28;20042;-40
2022/05/17 10:54:31;;;;;;;2.03;1.75;;;20.70;59.30;;;;;;5101319;28;20121;-39
2022/05/17 10:57:23;;;;;;;1.90;1.40;;;20.70;59.20;;;;;;5111560;28;20035;-40
2022/05/17 11:00:14;;;;;;;4.72;1.90;;;20.70;59.10;;;;;;5089838;28;20032;-40
2022/05/17 11:03:18;;;;;;;3.22;1.38;;;20.70;59.10;;;;;;5094829;28;20024;-39
2022/05/17 11:06:09;;;;;;;2.47;1.35;;;20.70;59.00;;;;;;5116002;28;20034;-40
2022/05/17 11:09:09;;;;;;;2.30;1.80;;;20.70;58.90;;;;;;5111322;28;20035;-40
2022/05/17 11:11:39;;;;;;;3.08;1.80;;;20.70;58.90;;;;;;5092094;28;20066;-41
2022/05/17 11:14:20;;;;;;;2.45;1.70;;;20.70;58.70;;;;;;5105085;28;20047;-40
2022/05/17 11:17:16;;;;;;;2.33;1.52;;;20.60;58.60;;;;;;5116539;28;20039;-40
2022/05/17 11:20:09;;;;;;;1.88;1.50;;;20.70;58.60;;;;;;5070193;28;20051;-40
2022/05/17 11:23:03;;;;;;;2.42;1.60;;;20.70;58.50;;;;;;5092302;28;20040;-40
2022/05/17 11:25:36;;;;;;;2.92;1.55;;;20.60;58.40;;;;;;5111761;28;21023;-40
2022/05/17 11:28:08;;;;;;;1.55;1.45;;;20.60;58.40;;;;;;5104090;28;20619;-40
2022/05/17 11:30:44;;;;;;;2.70;1.42;;;20.60;58.30;;;;;;5092457;28;20071;-40
2022/05/17 11:33:26;;;;;;;2.55;1.73;;;20.60;58.30;;;;;;5107623;28;20052;-40
2022/05/17 11:35:54;;;;;;;1.60;1.30;;;20.60;58.30;;;;;;5117136;28;20034;-40
2022/05/17 11:38:36;;;;;;;2.95;1.55;;;20.60;58.20;;;;;;5093877;28;20031;-40
2022/05/17 11:41:34;;;;;;;2.13;1.42;;;20.60;58.10;;;;;;5106004;28;20026;-40
2022/05/17 11:44:05;;;;;;;2.38;1.30;;;20.50;58.10;;;;;;5100357;28;20024;-40
2022/05/17 11:46:31;;;;;;;2.28;1.58;;;20.50;58.10;;;;;;5103845;28;20107;-40
2022/05/17 11:49:07;;;;;;;3.20;1.63;;;20.50;58.00;;;;;;5092516;28;20048;-41
2022/05/17 11:51:36;;;;;;;2.10;1.60;;;20.50;58.00;;;;;;5097829;28;20026;-40
2022/05/17 11:54:06;;;;;;;2.35;1.50;;;20.50;57.90;;;;;;5100561;28;20059;-39
2022/05/17 11:56:37;;;;;;;2.30;1.70;;;20.50;58.00;;;;;;5094283;28;20029;-41
2022/05/17 11:59:12;;;;;;;2.30;1.40;;;20.50;57.80;;;;;;5104021;28;20571;-40
2022/05/17 12:01:38;;;;;;;1.90;1.33;;;20.50;57.90;;;;;;5094142;28;20088;-40
2022/05/17 12:04:24;;;;;;;2.47;1.55;;;20.40;57.80;;;;;;5093886;28;20492;-40
2022/05/17 12:06:53;;;;;;;2.28;1.70;;;20.40;57.80;;;;;;5102689;28;20034;-40
2022/05/17 12:09:29;;;;;;;1.50;1.40;;;20.40;57.80;;;;;;5100242;28;20029;-40
2022/05/17 12:12:13;;;;;;;3.20;1.50;;;20.40;57.70;;;;;;5098526;28;20032;-39
2022/05/17 12:14:45;;;;;;;1.95;1.42;;;20.40;57.70;;;;;;5093177;28;20055;-40
2022/05/17 12:17:43;;;;;;;1.50;1.33;;;20.40;57.70;;;;;;5098226;28;20079;-39
2022/05/17 12:20:19;;;;;;;2.60;1.40;;;20.40;57.70;;;;;;5079823;28;20081;-39
2022/05/17 12:23:17;;;;;;;1.67;1.35;;;20.30;57.70;;;;;;5100591;28;20366;-40
2022/05/17 12:25:55;;;;;;;1.73;1.50;;;20.30;57.60;;;;;;5051659;28;20036;-38
2022/05/17 12:28:33;;;;;;;1.67;1.30;;;20.30;57.70;;;;;;5093306;28;20023;-40
2022/05/17 12:31:02;;;;;;;;;;;20.30;57.90;;;;;;5077589;28;20036;-39
2022/05/17 12:33:31;;;;;;;2.25;1.50;;;20.30;57.80;;;;;;5092324;28;19923;-39
2022/05/17 12:36:16;;;;;;;1.70;1.20;;;20.30;57.90;;;;;;5097092;28;20036;-39
2022/05/17 12:44:19;;;;;;;1.50;1.40;;;20.20;57.80;;;;;;5095031;28;20081;-39
2022/05/17 12:46:45;;;;;;;1.60;1.50;;;20.20;57.80;;;;;;5092719;28;20058;-39
2022/05/17 12:49:17;;;;;;;1.80;1.30;;;20.20;57.80;;;;;;5097584;28;20645;-39
2022/05/17 12:51:50;;;;;;;3.72;1.40;;;20.20;57.80;;;;;;5096822;28;20032;-39
2022/05/17 12:54:19;;;;;;;1.55;1.45;;;20.20;57.80;;;;;;5104401;28;20037;-39
2022/05/17 12:56:47;;;;;;;1.67;1.58;;;20.20;57.80;;;;;;5076764;28;20139;-40
2022/05/17 12:59:14;;;;;;;1.95;1.42;;;20.20;57.80;;;;;;5095697;28;20028;-39
2022/05/17 13:01:42;;;;;;;1.40;1.25;;;20.20;57.90;;;;;;5074577;28;20081;-39
2022/05/17 13:04:14;;;;;;;1.85;1.33;;;20.20;57.90;;;;;;5069325;28;20771;-39
2022/05/17 13:06:43;;;;;;;1.50;1.40;;;20.20;57.90;;;;;;5091565;28;20035;-39
2022/05/17 13:09:29;;;;;;;1.77;1.42;;;20.20;57.90;;;;;;5086448;28;20048;-39
2022/05/17 13:11:59;;;;;;;1.77;1.45;;;20.20;58.00;;;;;;5095077;28;20020;-39
2022/05/17 13:14:29;;;;;;;1.40;1.30;;;20.20;58.00;;;;;;5097032;28;20055;-39
2022/05/17 13:17:20;;;;;;;2.85;1.40;;;20.20;58.00;;;;;;5099534;28;20031;-39
2022/05/17 13:19:47;;;;;;;1.48;1.17;;;20.20;58.10;;;;;;5085595;28;20569;-39
2022/05/17 13:22:14;;;;;;;1.30;1.17;;;20.10;58.10;;;;;;5090647;28;20027;-39
2022/05/17 13:24:45;;;;;;;1.70;1.50;;;20.10;58.10;;;;;;5080875;28;20031;-39
2022/05/17 13:27:28;;;;;;;1.88;1.20;;;20.10;58.20;;;;;;5082540;28;20110;-39
2022/05/17 13:30:00;;;;;;;1.38;1.27;;;20.10;58.20;;;;;;5100917;28;20044;-39
2022/05/17 13:32:29;;;;;;;1.40;1.30;;;20.10;58.20;;;;;;5093007;28;20020;-39
2022/05/17 13:35:14;;;;;;;1.40;1.30;;;20.10;58.40;;;;;;5086342;28;20036;-39
2022/05/17 13:38:23;;;;;;;1.90;1.40;;;20.20;58.50;;;;;;5095124;28;20036;-39
2022/05/17 13:40:57;;;;;;;1.90;1.40;;;20.20;58.70;;;;;;5086469;28;20044;-39
2022/05/17 13:43:36;;;;;;;2.35;1.45;;;20.20;58.70;;;;;;5098049;28;20611;-38
2022/05/17 13:46:07;;;;;;;1.95;1.20;;;20.20;58.70;;;;;;5098724;28;20055;-39
2022/05/17 13:48:33;;;;;;;2.03;1.20;;;20.20;58.70;;;;;;5095825;28;20742;-39
2022/05/17 13:51:00;;;;;;;1.77;1.27;;;20.20;58.70;;;;;;5066753;28;21071;-39
2022/05/17 13:53:29;;;;;;;2.40;2.20;;;20.20;58.80;;;;;;5071781;28;20045;-39
2022/05/17 13:55:55;;;;;;;2.85;1.27;;;20.20;58.80;;;;;;5090999;28;20028;-38
2022/05/17 13:58:22;;;;;;;1.98;1.40;;;20.20;58.90;;;;;;5093279;28;20059;-39
2022/05/17 14:01:07;;;;;;;1.42;1.30;;;20.20;58.90;;;;;;5095901;28;20113;-39
2022/05/17 14:03:33;;;;;;;1.50;1.33;;;20.20;58.90;;;;;;5075496;28;20596;-39
2022/05/17 14:06:19;;;;;;;1.30;1.17;;;20.20;59.00;;;;;;5096269;28;20032;-42
2022/05/17 14:11:51;;;;;;;2.67;1.58;;;20.20;59.30;;;;;;5034090;28;20052;-39
2022/05/17 14:14:19;;;;;;;1.30;1.20;;;20.20;59.40;;;;;;5075854;28;20077;-39
2022/05/17 14:17:03;;;;;;;1.55;1.30;;;20.20;59.60;;;;;;5087751;28;20059;-39
2022/05/17 14:19:31;;;;;;;1.52;1.13;;;20.30;59.80;;;;;;5094619;28;20031;-39
2022/05/17 14:22:00;;;;;;;1.50;1.20;;;20.30;60.00;;;;;;5101632;28;20042;-38
2022/05/17 14:24:26;;;;;;;1.48;1.30;;;20.20;60.20;;;;;;5099160;28;20042;-39
2022/05/17 14:26:54;;;;;;;1.17;1.05;;;20.30;60.50;;;;;;5105972;28;20095;-38
2022/05/17 14:29:21;;;;;;;1.25;1.15;;;20.30;60.60;;;;;;5079751;28;20048;-40
2022/05/17 14:31:48;;;;;;;1.30;1.20;;;20.30;60.70;;;;;;5092980;28;20036;-39
2022/05/17 14:34:16;;;;;;;1.50;1.40;;;20.30;60.80;;;;;;5097325;28;20523;-38
2022/05/17 14:36:43;;;;;;;1.20;1.10;;;20.30;61.00;;;;;;5094280;28;20587;-38
2022/05/17 14:39:09;;;;;;;;;;;20.30;61.20;;;;;;5099438;28;20039;-39
2022/05/17 14:41:35;;;;;;;1.50;1.10;;;20.40;61.40;;;;;;5099965;28;20003;-39
2022/05/17 14:44:02;;;;;;;1.43;1.30;;;20.30;61.50;;;;;;5090254;28;20032;-39
2022/05/17 14:46:29;;;;;;;1.48;1.38;;;20.30;61.70;;;;;;5101756;28;20088;-39
2022/05/17 14:48:55;;;;;;;1.70;1.60;;;20.30;61.80;;;;;;5089681;28;20044;-39
2022/05/17 14:51:24;;;;;;;1.40;1.30;;;20.30;61.90;;;;;;5073921;28;20040;-39
2022/05/17 14:53:50;;;;;;;1.42;1.33;;;20.40;62.10;;;;;;5074555;28;20292;-39
2022/05/17 14:56:16;;;;;;;1.70;1.25;;;20.40;62.20;;;;;;5105731;28;20166;-44
2022/05/17 14:58:42;;;;;;;1.60;1.40;;;20.40;62.30;;;;;;5103009;28;20034;-40
2022/05/17 15:01:08;;;;;;;1.38;1.27;;;20.40;62.50;;;;;;5115222;28;20027;-39
2022/05/17 15:03:42;;;;;;;1.20;0.90;;;20.40;63.30;;;;;;5082051;28;20047;-39
2022/05/17 15:06:09;;;;;;;1.73;1.25;;;20.40;62.70;;;;;;5078517;28;20064;-39
2022/05/17 15:08:37;;;;;;;1.52;1.42;;;20.50;62.90;;;;;;5103157;28;20031;-39
2022/05/17 15:11:04;;;;;;;1.30;1.20;;;20.50;63.10;;;;;;5100823;28;20029;-39
2022/05/17 15:13:30;;;;;;;1.42;1.33;;;20.50;63.20;;;;;;5114095;28;20029;-39
2022/05/17 15:16:16;;;;;;;0.82;0.77;;;20.50;63.30;;;;;;5103310;28;20035;-39
2022/05/17 15:18:44;;;;;;;1.30;1.17;;;20.50;63.40;;;;;;5098274;28;20037;-39
2022/05/17 15:21:10;;;;;;;1.50;1.40;;;20.60;63.70;;;;;;5104895;28;20035;-39
2022/05/17 15:23:37;;;;;;;1.33;1.20;;;20.60;63.80;;;;;;5101421;28;20107;-39
2022/05/17 15:26:04;;;;;;;1.35;1.25;;;20.60;63.90;;;;;;5101616;28;20034;-39
2022/05/17 15:28:30;;;;;;;;;;;20.60;64.00;;;;;;5097862;28;20096;-39
2022/05/17 15:30:57;;;;;;;1.30;1.20;;;20.60;64.20;;;;;;5094155;28;19952;-39
2022/05/17 15:33:25;;;;;;;1.98;1.60;;;20.70;64.40;;;;;;5081363;28;20046;-39
2022/05/17 15:35:51;;;;;;;1.45;1.27;;;20.70;64.50;;;;;;5104610;28;20051;-39
2022/05/17 15:38:26;;;;;;;1.27;1.10;;;20.70;64.50;;;;;;5093022;28;20109;-39
2022/05/17 15:40:55;;;;;;;1.20;1.10;;;20.70;64.70;;;;;;5097897;28;20106;-39
2022/05/17 15:43:22;;;;;;;2.83;1.33;;;20.70;64.80;;;;;;5093840;28;20028;-39
2022/05/17 15:45:49;;;;;;;1.23;1.13;;;20.70;64.80;;;;;;5095530;28;20039;-39
2022/05/17 15:53:45;;;;;;;1.30;1.20;;;20.80;65.10;;;;;;5068685;28;20030;-39
2022/05/17 15:56:15;;;;;;;1.47;1.20;;;20.80;65.10;;;;;;5096044;28;20651;-39
2022/05/17 15:58:45;;;;;;;1.75;1.20;;;20.90;65.30;;;;;;5097674;28;20264;-39
2022/05/17 16:01:14;;;;;;;1.20;1.10;;;20.90;65.30;;;;;;5094902;28;20623;-39
2022/05/17 16:03:49;;;;;;;1.80;1.20;;;20.90;65.30;;;;;;5068003;28;20036;-38
2022/05/17 16:06:15;;;;;;;1.42;1.33;;;20.90;65.30;;;;;;5089487;28;20107;-39
2022/05/17 16:08:41;;;;;;;1.27;1.17;;;20.90;65.50;;;;;;5089163;28;20028;-39
2022/05/17 16:13:52;;;;;;;1.45;1.17;;;21.00;65.70;;;;;;5098792;28;20042;-39
2022/05/17 16:16:18;;;;;;;1.27;1.15;;;21.10;65.70;;;;;;5094306;28;20070;-40
2022/05/17 16:18:55;;;;;;;1.67;1.00;;;21.10;65.80;;;;;;5095048;28;20028;-39
2022/05/17 16:21:22;;;;;;;1.40;1.30;;;21.10;65.90;;;;;;5102183;28;20089;-39
2022/05/17 16:23:48;;;;;;;1.27;1.17;;;21.10;66.00;;;;;;5087846;28;20053;-39
2022/05/17 16:26:14;;;;;;;0.90;0.90;;;21.10;65.90;;;;;;5099706;28;20036;-38
2022/05/17 16:28:43;;;;;;;1.30;1.20;;;21.20;66.10;;;;;;5099959;28;20055;-39
2022/05/17 16:31:11;;;;;;;1.20;1.10;;;21.20;66.10;;;;;;5091571;28;20077;-40
2022/05/17 16:33:37;;;;;;;1.00;1.00;;;21.20;66.10;;;;;;5074716;28;20028;-39
2022/05/17 16:36:05;;;;;;;1.50;1.40;;;21.30;66.20;;;;;;5091584;28;20065;-39
2022/05/17 16:38:30;;;;;;;;;;;21.30;66.10;;;;;;5093965;28;20028;-39
2022/05/17 16:40:57;;;;;;;1.02;0.93;;;21.30;66.20;;;;;;5099713;28;19909;-39
2022/05/17 16:43:23;;;;;;;1.20;1.10;;;21.40;66.20;;;;;;5092820;28;20051;-39
2022/05/17 16:45:49;;;;;;;1.00;0.90;;;21.40;66.20;;;;;;5101916;28;20027;-39
2022/05/17 16:48:16;;;;;;;1.27;1.10;;;21.40;66.30;;;;;;5077296;28;20028;-39
2022/05/17 16:50:46;;;;;;;1.55;1.20;;;21.50;66.40;;;;;;5091699;28;20043;-39
2022/05/17 16:53:13;;;;;;;1.20;1.10;;;21.50;66.40;;;;;;5100204;28;20031;-40
2022/05/17 16:55:39;;;;;;;1.27;1.00;;;21.50;66.40;;;;;;5104006;28;20067;-39
2022/05/17 16:58:07;;;;;;;1.63;1.10;;;21.50;66.50;;;;;;5097482;28;20286;-39
2022/05/17 17:00:34;;;;;;;0.80;0.80;;;21.60;66.50;;;;;;5106922;28;20032;-39
2022/05/17 17:03:01;;;;;;;1.20;1.10;;;21.60;66.50;;;;;;5104129;28;20051;-39
2022/05/17 17:05:29;;;;;;;1.10;1.05;;;21.60;66.40;;;;;;5082398;28;20032;-39
2022/05/17 17:07:56;;;;;;;1.20;1.10;;;21.70;66.50;;;;;;5082766;28;20115;-39
2022/05/17 17:10:24;;;;;;;1.20;1.10;;;21.70;66.50;;;;;;5099345;28;20087;-38
2022/05/17 17:12:50;;;;;;;1.17;1.08;;;21.70;66.40;;;;;;5102602;28;20046;-38
2022/05/17 17:15:16;;;;;;;1.20;1.10;;;21.70;66.40;;;;;;5101068;28;20024;-39
2022/05/17 17:17:42;;;;;;;1.30;1.20;;;21.80;66.50;;;;;;5104673;28;20032;-39
2022/05/17 17:20:09;;;;;;;1.20;1.00;;;21.80;66.50;;;;;;5073286;28;20044;-39
2022/05/17 17:22:36;;;;;;;1.80;1.00;;;21.90;66.60;;;;;;5075953;28;20035;-39
2022/05/17 17:25:04;;;;;;;1.30;1.20;;;21.90;66.70;;;;;;5102596;28;20035;-39
2022/05/17 17:27:33;;;;;;;1.10;1.00;;;21.90;66.60;;;;;;5095312;28;20062;-40
2022/05/17 17:29:59;;;;;;;1.30;1.20;;;22.00;66.50;;;;;;5076161;28;20052;-39
2022/05/17 17:37:54;;;;;;;1.10;0.90;;;22.10;66.60;;;;;;5092539;28;20039;-39
2022/05/17 17:40:22;;;;;;;1.20;1.08;;;22.10;66.20;;;;;;5096210;28;20056;-40
2022/05/17 17:42:49;;;;;;;1.23;1.10;;;22.10;66.50;;;;;;5100381;28;20571;-39
2022/05/17 17:45:25;;;;;;;1.00;1.00;;;22.20;64.90;;;;;;5097682;28;20100;-39
2022/05/17 17:47:52;;;;;;;1.10;1.00;;;22.20;63.80;;;;;;5091175;28;20950;-39
2022/05/17 17:50:24;;;;;;;1.10;1.00;;;22.20;65.10;;;;;;5098707;28;20102;-39
2022/05/17 17:52:55;;;;;;;1.20;1.10;;;22.30;65.70;;;;;;5095973;28;20198;-40
2022/05/17 17:55:22;;;;;;;1.20;1.10;;;22.30;65.80;;;;;;5095108;28;20028;-39
2022/05/17 17:57:49;;;;;;;1.73;1.20;;;22.30;65.70;;;;;;5096823;28;20036;-39
2022/05/17 18:00:15;;;;;;;1.00;0.90;;;22.30;64.40;;;;;;5087805;28;20076;-38
2022/05/17 18:02:43;;;;;;;1.70;1.13;;;22.40;63.50;;;;;;5094959;28;20040;-40
2022/05/17 18:05:10;;;;;;;1.23;0.90;;;22.40;62.90;;;;;;5095738;28;20032;-39
2022/05/17 18:07:36;;;;;;;1.05;0.95;;;22.40;64.70;;;;;;5094061;28;20114;-40
2022/05/17 18:10:04;;;;;;;1.20;0.90;;;22.40;65.00;;;;;;5084324;28;20050;-39
2022/05/17 18:12:31;;;;;;;1.05;0.95;;;22.40;64.90;;;;;;5090090;28;20036;-39
2022/05/17 18:14:59;;;;;;;2.80;0.80;;;22.40;63.70;;;;;;5091522;28;20096;-39
2022/05/17 18:17:44;;;;;;;0.82;0.82;;;22.50;62.60;;;;;;5092155;28;20036;-39
2022/05/17 18:20:18;;;;;;;0.80;0.73;;;22.50;62.00;;;;;;5093423;28;20019;-39
2022/05/17 18:22:45;;;;;;;1.30;1.10;;;22.50;63.40;;;;;;5100359;28;20032;-39
2022/05/17 18:25:12;;;;;;;0.80;0.80;;;22.50;64.00;;;;;;5091813;28;20036;-39
2022/05/17 18:27:44;;;;;;;0.80;0.80;;;22.50;64.00;;;;;;5093602;28;20040;-39
2022/05/17 18:30:13;;;;;;;1.88;0.98;;;22.50;62.60;;;;;;5082708;28;20052;-39
2022/05/17 18:32:43;;;;;;;0.90;0.80;;;22.50;61.90;;;;;;5075063;28;20113;-39
2022/05/17 18:35:10;;;;;;;1.10;1.00;;;22.50;61.60;;;;;;5095673;28;20038;-39
2022/05/17 18:37:37;;;;;;;0.80;0.80;;;22.60;60.40;;;;;;5074742;28;20032;-39
2022/05/17 18:40:04;;;;;;;0.77;0.60;;;22.60;59.60;;;;;;5086653;28;20024;-39
2022/05/17 18:42:30;;;;;;;0.75;0.70;;;22.60;62.30;;;;;;5083700;28;20029;-39
2022/05/17 18:44:57;;;;;;;1.17;0.90;;;22.60;62.90;;;;;;5088131;28;20032;-39
2022/05/17 18:47:25;;;;;;;1.42;0.80;;;22.60;62.40;;;;;;5093858;28;20166;-39
2022/05/17 18:49:52;;;;;;;1.02;0.90;;;22.60;61.80;;;;;;5087462;28;20040;-39
2022/05/17 18:52:31;;;;;;;0.80;0.80;;;22.60;61.20;;;;;;5096032;28;20028;-39
2022/05/17 18:54:58;;;;;;;0.80;0.80;;;22.60;60.40;;;;;;5105490;28;20039;-39
2022/05/17 18:57:24;;;;;;;0.80;0.80;;;22.60;58.90;;;;;;5103624;28;20048;-39
2022/05/17 18:59:50;;;;;;;0.80;0.77;;;22.60;58.20;;;;;;5103020;28;20042;-39
2022/05/17 19:02:17;;;;;;;1.23;0.90;;;22.60;57.80;;;;;;5097042;28;20024;-39
2022/05/17 19:04:43;;;;;;;0.77;0.77;;;22.60;57.40;;;;;;5098399;28;20118;-39
2022/05/17 19:13:30;;;;;;;0.80;0.80;;;22.60;57.10;;;;;;5107232;28;20085;-39
2022/05/17 19:15:25;;;;;;;0.90;0.70;;;22.60;56.60;;;;;;5098706;28;20121;-40
2022/05/17 19:17:51;;;;;;;0.80;0.80;;;22.60;56.60;;;;;;5079946;28;20036;-39
2022/05/17 19:20:17;;;;;;;0.80;0.80;;;22.50;56.50;;;;;;5101687;28;20033;-39
2022/05/17 19:22:44;;;;;;;1.30;1.20;;;22.50;56.50;;;;;;5097364;28;20107;-39
2022/05/17 19:25:10;;;;;;;1.10;0.90;;;22.50;56.40;;;;;;5093809;28;20084;-38
2022/05/17 19:27:38;;;;;;;0.60;0.60;;;22.50;56.30;;;;;;5099407;28;20070;-39
2022/05/17 19:30:06;;;;;;;0.90;0.70;;;22.50;56.10;;;;;;5098092;28;20064;-39
2022/05/17 19:32:33;;;;;;;0.68;0.68;;;22.50;56.20;;;;;;5094921;28;20107;-39
2022/05/17 19:34:59;;;;;;;;;;;22.50;56.10;;;;;;5075329;28;20061;-39
2022/05/17 19:40:19;;;;;;;0.70;0.70;;;22.40;56.00;;;;;;5080778;28;20067;-39
2022/05/17 19:42:45;;;;;;;1.20;0.80;;;22.50;56.10;;;;;;5096509;28;20032;-39
2022/05/17 19:45:12;;;;;;;0.70;0.70;;;22.40;56.00;;;;;;5094843;28;20035;-39
2022/05/17 19:47:45;;;;;;;1.45;0.73;;;22.40;56.20;;;;;;5096959;28;20067;-39
2022/05/17 19:50:12;;;;;;;0.82;0.75;;;22.40;56.60;;;;;;5075175;28;20040;-39
2022/05/17 19:52:40;;;;;;;0.85;0.80;;;22.40;56.60;;;;;;5092255;28;20029;-39
2022/05/17 19:55:07;;;;;;;0.73;0.73;;;22.40;56.30;;;;;;5098460;28;20039;-39
2022/05/17 19:57:33;;;;;;;1.02;0.63;;;22.40;56.20;;;;;;5101170;28;20029;-39
2022/05/17 19:59:59;;;;;;;1.08;0.80;;;22.40;56.30;;;;;;5095573;28;20105;-39